Flight Track Log - Related Links

Times and Time Zones

All times are in EDT time to prevent confusion due to time zone crossing. See the N52522 flight status page for this flight to view local times or setup timezone preferences in your user account.

Time Position Orientation Groundspeed Altitude Reporting Facility
EDT Latitude Longitude Course Direction KTS MPH feet Rate Location/Type
Thu 06:01:12 PM 38.0353 -84.6575 11° North 54 62 2,800  Level Indianapolis Center
Thu 06:02:14 PM 38.0575 -84.6561 North 73 84 3,400 532 Climbing Indianapolis Center
Thu 06:03:16 PM 38.0792 -84.6525 North 75 86 3,900 532 Climbing Indianapolis Center
Thu 06:04:18 PM 38.1094 -84.6444 12° North 83 96 4,500 581 Climbing Indianapolis Center
Thu 06:05:00 PM 38.2709 -84.5520 11° North  Level Estimated
Thu 06:05:20 PM 38.1353 -84.6436 North 89 102 5,100  Level Indianapolis Center
Thu 06:06:00 PM 38.3100 -84.5425 11° North  Level Estimated
Thu 06:06:22 PM 38.1581 -84.6531 342° North 90 104 5,500  Level Indianapolis Center
Thu 06:07:24 PM 38.1789 -84.6314 39° Northeast 90 104 5,500  Level Indianapolis Center
Thu 06:08:26 PM 38.2097 -84.6164 21° North 104 120 5,500  Level Indianapolis Center
Thu 06:09:28 PM 38.2414 -84.6069 13° North 112 129 5,500  Level Indianapolis Center
Thu 06:10:30 PM 38.2797 -84.5969 12° North 117 135 5,500  Level Indianapolis Center
Thu 06:11:32 PM 38.3133 -84.5897 10° North 119 137 5,500 -48 Level Indianapolis Center
Thu 06:12:34 PM 38.3453 -84.5758 19° North 120 138 5,400  Descending Indianapolis Center
Thu 06:13:36 PM 38.3792 -84.5689 North 122 140 5,500 48 Climbing Indianapolis Center
Thu 06:14:38 PM 38.4122 -84.5664 North 123 142 5,500  Level Indianapolis Center
Thu 06:15:40 PM 38.4514 -84.5550 13° North 121 139 5,500  Level Indianapolis Center
Thu 06:16:44 PM 38.4844 -84.5447 14° North 121 139 5,500  Level Indianapolis Center
Thu 06:17:44 PM 38.5189 -84.5342 13° North 123 142 5,500 -49 Level Indianapolis Center
Thu 06:18:46 PM 38.5511 -84.5242 14° North 123 142 5,400  Descending Indianapolis Center
Thu 06:19:48 PM 38.5769 -84.5006 36° Northeast 117 135 5,500 48 Climbing Indianapolis Center
Thu 06:20:50 PM 38.6056 -84.4783 31° Northeast 118 136 5,500  Level Indianapolis Center
Thu 06:21:52 PM 38.6419 -84.4664 14° North 123 142 5,500 -48 Level Indianapolis Center
Thu 06:22:55 PM 38.6775 -84.4772 347° North 126 145 5,400 -48 Descending Indianapolis Center
Thu 06:23:57 PM 38.7058 -84.4536 33° Northeast 123 142 5,400  Level Indianapolis Center
Thu 06:24:59 PM 38.7339 -84.4306 33° Northeast 119 137 5,400  Level Indianapolis Center
Thu 06:26:01 PM 38.7614 -84.4067 34° Northeast 119 137 5,400 48 Level Indianapolis Center
Thu 06:27:03 PM 38.7919 -84.3906 22° Northeast 119 137 5,500 -48 Climbing Indianapolis Center
Thu 06:28:05 PM 38.8261 -84.3853 North 121 139 5,300  Descending Indianapolis Center
Thu 06:29:07 PM 38.8658 -84.3789 North 121 139 5,500 97 Climbing Indianapolis Center
Thu 06:30:09 PM 38.8992 -84.3694 12° North 121 139 5,500  Level Indianapolis Center
Thu 06:31:11 PM 38.9314 -84.3578 16° North 119 137 5,500 -48 Level Indianapolis Center
Thu 06:32:13 PM 38.9656 -84.3511 North 123 142 5,400 -48 Descending Indianapolis Center
Thu 06:33:15 PM 39.0008 -84.3442 North 126 145 5,400 48 Level Indianapolis Center
Thu 06:34:17 PM 39.0336 -84.3344 13° North 124 143 5,500  Climbing Indianapolis Center
Thu 06:35:19 PM 39.0647 -84.3286 North 117 135 5,400  Descending Indianapolis Center
Thu 06:36:21 PM 39.0989 -84.3200 11° North 119 137 5,500 48 Climbing Indianapolis Center
Thu 06:37:23 PM 39.1386 -84.3094 12° North 122 140 5,500  Level Indianapolis Center
Thu 06:37:41 PM 39.1494 -84.3072 North 123 142 5,500  Level Indianapolis Center
Thu 06:38:25 PM 39.1717 -84.3008 13° North 122 140 5,500 -61 Level Indianapolis Center
Thu 06:39:19 PM 39.2050 -84.2931 10° North 131 151 5,400  Descending Indianapolis Center
Thu 06:40:19 PM 39.2411 -84.2897 North 128 147 5,500 50 Climbing Indianapolis Center
Thu 06:41:20 PM 39.2750 -84.2833 North 122 140 5,500  Level Indianapolis Center
Thu 06:42:21 PM 39.3075 -84.2714 16° North 121 139 5,500  Level Indianapolis Center
Thu 06:43:22 PM 39.3417 -84.2625 11° North 124 143 5,500  Level Indianapolis Center
Thu 06:44:23 PM 39.3781 -84.2539 10° North 125 144 5,500  Level Indianapolis Center
Thu 06:44:38 PM 39.3850 -84.2492 28° Northeast 124 143 5,500  Level Indianapolis Center
Thu 06:45:24 PM 39.4119 -84.2475 North 124 143 5,500  Level Indianapolis Center
Thu 06:45:40 PM 39.4192 -84.2431 25° Northeast 123 142 5,500  Level Indianapolis Center
Thu 06:46:25 PM 39.4464 -84.2358 12° North 126 145 5,500 -97 Level Indianapolis Center
Thu 06:46:42 PM 39.4542 -84.2325 18° North 125 144 5,400 -91 Descending Indianapolis Center
Thu 06:47:31 PM 39.4825 -84.2297 North 125 144 5,400 55 Level Indianapolis Center
Thu 06:48:32 PM 39.5189 -84.2211 10° North 123 142 5,500 98 Climbing Indianapolis Center
Thu 06:49:33 PM 39.5531 -84.2147 North 123 142 5,600  Climbing Indianapolis Center
Thu 06:49:48 PM 39.5567 -84.2117 33° Northeast 123 142 5,500 -100 Descending Indianapolis Center
Thu 06:50:33 PM 39.5850 -84.2056 North 123 142 5,500 -97 Level Indianapolis Center
Thu 06:50:50 PM 39.5908 -84.2022 24° Northeast 124 143 5,400  Descending Indianapolis Center
Thu 06:51:28 PM 39.6172 -84.1961 10° North 128 147 5,500  Climbing Indianapolis Center
Thu 06:51:52 PM 39.6317 -84.1922 12° North 125 144 5,400 -98 Descending Indianapolis Center
Thu 06:52:29 PM 39.6514 -84.1897 North 123 142 5,400 97 Level Indianapolis Center
Thu 06:52:54 PM 39.6658 -84.1858 12° North 124 143 5,500 98 Climbing Indianapolis Center
Thu 06:53:30 PM 39.6856 -84.1808 11° North 125 144 5,500 -97 Level Indianapolis Center
Thu 06:53:56 PM 39.7000 -84.1750 17° North 125 144 5,400  Descending Indianapolis Center
Thu 06:54:37 PM 39.7244 -84.1669 14° North 128 147 5,500  Climbing Indianapolis Center
Thu 06:54:58 PM 39.7350 -84.1642 11° North 126 145 5,400  Descending Indianapolis Center
Thu 06:55:31 PM 39.7542 -84.1600 North 125 144 5,500  Climbing Indianapolis Center
Thu 06:56:00 PM 39.7703 -84.1556 12° North 127 146 5,400  Descending Indianapolis Center
Thu 06:56:32 PM 39.7903 -84.1539 North 123 142 5,500  Climbing Indianapolis Center
Thu 06:57:02 PM 39.8047 -84.1508 North 125 144 5,400  Descending Indianapolis Center
Thu 06:57:33 PM 39.8264 -84.1478 North 130 150 5,500 97 Climbing Indianapolis Center
Thu 06:58:04 PM 39.8400 -84.1442 12° North 125 144 5,500 -90 Level Indianapolis Center
Thu 06:58:40 PM 39.8631 -84.1361 15° North 124 143 5,400  Descending Indianapolis Center
Thu 06:59:06 PM 39.8739 -84.1314 18° North 126 145 5,500 100 Climbing Indianapolis Center
Thu 06:59:40 PM 39.8975 -84.1244 13° North 123 142 5,500 -97 Level Indianapolis Center
Thu 07:00:08 PM 39.9142 -84.1206 10° North 125 144 5,400  Descending Indianapolis Center
Thu 07:00:41 PM 39.9317 -84.1153 13° North 128 147 5,500  Climbing Indianapolis Center
Thu 07:01:10 PM 39.9478 -84.1094 16° North 124 143 5,400  Descending Indianapolis Center
Thu 07:01:42 PM 39.9658 -84.1089 North 120 138 5,500 97 Climbing Indianapolis Center
Thu 07:02:12 PM 39.9808 -84.1061 North 121 139 5,500 100 Level Indianapolis Center
Thu 07:02:42 PM 39.9975 -84.1050 North 119 137 5,600  Climbing Indianapolis Center
Thu 07:03:14 PM 40.0142 -84.1003 12° North 120 138 5,500 -98 Descending Indianapolis Center
Thu 07:03:43 PM 40.0297 -84.0928 20° North 122 140 5,500  Level Indianapolis Center
Thu 07:04:16 PM 40.0475 -84.0889 10° North 121 139 5,500  Level Indianapolis Center
Thu 07:04:38 PM 40.0617 -84.0889 360° North 125 144 5,500  Level Indianapolis Center
Thu 07:05:19 PM 40.0819 -84.0808 17° North 124 143 5,500  Level Indianapolis Center
Thu 07:05:39 PM 40.0958 -84.0797 North 129 148 5,500 -97 Level Indianapolis Center
Thu 07:06:21 PM 40.1178 -84.0775 North 125 144 5,400  Descending Indianapolis Center
Thu 07:06:45 PM 40.1364 -84.0714 14° North 126 145 5,500  Climbing Indianapolis Center
Thu 07:07:23 PM 40.1575 -84.0639 15° North 125 144 5,400 -109 Descending Indianapolis Center
Thu 07:07:40 PM 40.1683 -84.0619 North 127 146 5,400  Level Indianapolis Center
Thu 07:08:25 PM 40.1925 -84.0544 13° North 126 145 5,400 98 Level Indianapolis Center
Thu 07:08:41 PM 40.2006 -84.0525 10° North 124 143 5,500 -97 Climbing Indianapolis Center
Thu 07:09:27 PM 40.2272 -84.0456 11° North 126 145 5,300 -56 Descending Indianapolis Center
Thu 07:10:29 PM 40.2619 -84.0381 North 125 144 5,400 97 Climbing Indianapolis Center
Thu 07:11:31 PM 40.2956 -84.0292 11° North 124 143 5,500  Climbing Indianapolis Center
Thu 07:12:33 PM 40.3308 -84.0231 North 125 144 5,400  Descending Indianapolis Center
Thu 07:13:35 PM 40.3642 -84.0147 11° North 124 143 5,500  Climbing Indianapolis Center
Thu 07:14:37 PM 40.3994 -84.0069 10° North 125 144 5,400 -48 Descending Indianapolis Center
Thu 07:15:39 PM 40.4392 -83.9950 13° North 125 144 5,400 49 Level Indianapolis Center
Thu 07:16:40 PM 40.4742 -83.9839 14° North 126 145 5,500  Climbing Indianapolis Center
Thu 07:17:42 PM 40.5097 -83.9778 North 127 146 5,400 -48 Descending Indianapolis Center
Thu 07:18:44 PM 40.5461 -83.9697 10° North 129 148 5,400 48 Level Indianapolis Center
Thu 07:19:46 PM 40.5803 -83.9586 14° North 127 146 5,500  Climbing Indianapolis Center
Thu 07:20:48 PM 40.6153 -83.9542 North 126 145 5,400 -48 Descending Indianapolis Center
Thu 07:21:50 PM 40.6497 -83.9478 North 125 144 5,400  Level Indianapolis Center
Thu 07:22:52 PM 40.6842 -83.9331 18° North 125 144 5,400  Level Indianapolis Center
Thu 07:23:54 PM 40.7194 -83.9217 14° North 127 146 5,400  Level Indianapolis Center
Thu 07:24:55 PM 40.7622 -83.9161 North 130 150 5,400  Level Indianapolis Center
Thu 07:25:57 PM 40.7964 -83.9069 11° North 127 146 5,400  Level Indianapolis Center
Thu 07:26:59 PM 40.8311 -83.8953 14° North 126 145 5,400  Level Indianapolis Center
Thu 07:28:01 PM 40.8658 -83.8872 10° North 126 145 5,400  Level Indianapolis Center
Thu 07:29:03 PM 40.9017 -83.8836 North 128 147 5,400  Level Indianapolis Center
Thu 07:30:04 PM 40.9361 -83.8717 15° North 126 145 5,400  Level Indianapolis Center
Thu 07:31:06 PM 40.9703 -83.8639 10° North 125 144 5,400  Level Indianapolis Center
Thu 07:32:08 PM 41.0047 -83.8547 11° North 125 144 5,400  Level Indianapolis Center
Thu 07:33:10 PM 41.0386 -83.8444 13° North 124 143 5,400  Level Indianapolis Center
Thu 07:34:11 PM 41.0781 -83.8353 10° North 123 142 5,400 49 Level Indianapolis Center
Thu 07:35:13 PM 41.1125 -83.8294 North 123 142 5,500  Climbing Indianapolis Center
Thu 07:36:15 PM 41.1444 -83.8181 15° North 121 139 5,400 -97 Descending Indianapolis Center

Login

Don't have an account? Register now (free) for customized features, flight alerts, and more!